La Jara, NM (87027)

3:16 AM MST on January 30, 2015 (GMT -0700)
RAWS CUBA NM US | Change Station
CLOSE
Current Station
Personal Weather Station
Location: Cuba, NM
Elevation: 7033 ft
Nearby Weather Stations
Active Advisory: Winter Storm Warning

Elev 7033 ft 35.94 °N, 107.08 °W | Updated 35 minutes ago

Overcast
Overcast
29 °F
Feels Like 21 °F
N
8
Wind Variable Wind from SSE
Gusts 17.0 mph

Today
High -- | Low -- °F
--% Chance of Precip.
Yesterday
High -- | Low -- °F
Precip. -- in
7:10 AM 5:32 PM
Waxing Gibbous, 81% visible
Pressure 30.39 in
Visibility 1.0 miles
Clouds Overcast 500 ft
Windchill 21 °F
Dew Point 27 °F
Humidity 92%
Rainfall 0.00 in
Snow Depth Not available.
UV 0 out of 12
Pollen 1.30 out of 12
Air Quality Not available.
Flu Activity Not available.
METAR KLAM 300955Z AUTO 20010KT 1SM SN OVC005 M03/M03 A3039 RMK AO2 T10301030

More Conditions Fewer Conditions

Pressure 30.39 in
Visibility 1.0 miles
Clouds Overcast 500 ft
Windchill 21 °F
Dew Point 27 °F
Humidity 92%
Rainfall 0.00 in
Snow Depth Not available.
UV 0 out of 12
Pollen 1.30 out of 12
Air Quality Not available.
Flu Activity Not available.
METAR KLAM 300955Z AUTO 20010KT 1SM SN OVC005 M03/M03 A3039 RMK AO2 T10301030

More Conditions Fewer Conditions

Nowcast | as of 1:57 am MST on January 30, 2015

Snow will increase in coverage and intensity across western New Mexico through the overnight...perhaps mixed with rain at lower elevations. The snow level will vary between 5000 and 6000 feet. Periods of snow may impact roads especially near the Continental Divide...including Interstate 40 near Thoreau and Highway 550 northwest of Cuba. Around 1 or 2 inches of new snow accumulation will be possible above 6000 feet by 5 am MST. For the latest Road conditions visit nm roads.Com or dial 511.

×

10-Day Weather Forecast

Almanac

Astronomy

Jan. 30, 2015 Rise Set
Actual Time
Civil Twilight
Nautical Twilight
Astronomical Twilight
Moon
Length of Visible Light
Length of Day
Tomorrow will be .
, % of the Moon is Illuminated

Today's Extremes

State Highs State Lows

Community

WunderPhotos

Upload Photos

1,791,736 photos uploaded!

WunderBlogs® & News

Nearby

Air Quality

  Air Quality AQ Index Pollutant
Not available.

Snow Depth

Station Depth Elevation

Earthquake Activity

City Distance Mag. Time & Date
Minimum magnitude displayed is 2.5.

Coastal Water Temperatures

Place Temperature

Nearby Weather Stations